Time;durP1;ratioP1;P1;durP2;ratioP2;P2;SDS_P1;SDS_P2;PMS_P1;PMS_P2;Temp;Humidity;BMP_temperature;BMP_pressure;BME280_temperature;BME280_humidity;BME280_pressure;Samples;Min_cycle;Max_cycle;Signal;HPM_P1;HPM_P2
2023/08/06 00:00:29;;;;;;;14.23;10.50;;;;;;;15.05;100.00;97353.50;5050532;28;20561;-86
2023/08/06 00:02:55;;;;;;;12.17;9.40;;;;;;;15.05;100.00;97350.00;5050691;28;20215;-88
2023/08/06 00:05:22;;;;;;;10.77;8.67;;;;;;;15.06;100.00;97346.34;5050571;28;20215;-88
2023/08/06 00:07:50;;;;;;;12.20;9.77;;;;;;;15.06;100.00;97343.69;5050395;28;20215;-89
2023/08/06 00:10:21;;;;;;;11.40;9.17;;;;;;;15.05;100.00;97344.69;5050071;28;20448;-89
2023/08/06 00:13:00;;;;;;;12.27;10.10;;;;;;;15.03;100.00;97338.69;5050357;28;20233;-89
2023/08/06 00:15:26;;;;;;;14.00;10.60;;;;;;;15.05;100.00;97336.69;5050388;28;20204;-90
2023/08/06 00:17:53;;;;;;;12.63;9.50;;;;;;;15.04;100.00;97337.69;5050419;28;20242;-89
2023/08/06 00:20:20;;;;;;;12.07;9.67;;;;;;;15.01;100.00;97330.00;5053113;28;20234;-89
2023/08/06 00:22:46;;;;;;;11.43;9.47;;;;;;;14.95;100.00;97330.59;5053842;28;20215;-89
2023/08/06 00:25:14;;;;;;;9.67;7.80;;;;;;;14.83;100.00;97327.34;5054316;28;20210;-89
2023/08/06 00:27:41;;;;;;;14.20;9.03;;;;;;;14.75;100.00;97337.06;5054008;28;20239;-89
2023/08/06 00:30:08;;;;;;;9.80;8.30;;;;;;;14.64;100.00;97331.97;5053453;28;20228;-89
2023/08/06 00:32:34;;;;;;;10.30;8.67;;;;;;;14.51;100.00;97337.66;5053863;28;20220;-90
2023/08/06 00:35:01;;;;;;;11.50;8.37;;;;;;;14.44;100.00;97330.41;5053693;28;20214;-89
2023/08/06 00:37:27;;;;;;;9.43;8.33;;;;;;;14.36;100.00;97333.00;5053526;28;20231;-89
2023/08/06 00:39:54;;;;;;;12.00;9.23;;;;;;;14.30;100.00;97341.56;5053471;28;20226;-90
2023/08/06 00:42:22;;;;;;;11.67;8.43;;;;;;;14.27;100.00;97331.22;5053731;28;20219;-89
2023/08/06 00:44:49;;;;;;;14.10;9.80;;;;;;;14.23;100.00;97332.50;5053664;28;20211;-89
2023/08/06 00:47:16;;;;;;;12.37;9.87;;;;;;;14.22;100.00;97331.66;5053348;28;20678;-90
2023/08/06 00:49:43;;;;;;;15.13;11.40;;;;;;;14.29;100.00;97322.09;5053052;28;20236;-90
2023/08/06 00:52:09;;;;;;;13.10;9.90;;;;;;;14.38;100.00;97328.34;5053249;28;20215;-90
2023/08/06 00:54:36;;;;;;;13.57;10.87;;;;;;;14.46;100.00;97323.13;5053554;28;20212;-89
2023/08/06 00:57:05;;;;;;;13.67;11.07;;;;;;;14.47;100.00;97322.13;5053220;28;20208;-90
2023/08/06 00:59:33;;;;;;;13.00;10.40;;;;;;;14.41;100.00;97326.22;5067415;22;20246;-82
2023/08/06 01:02:00;;;;;;;17.63;12.60;;;;;;;14.40;100.00;97324.56;5053661;28;20208;-81
2023/08/06 01:04:26;;;;;;;13.80;11.00;;;;;;;14.42;100.00;97305.81;5053486;28;20208;-81
2023/08/06 01:07:02;;;;;;;14.13;11.40;;;;;;;14.33;100.00;97306.69;5053278;28;20211;-82
2023/08/06 01:09:36;;;;;;;13.90;10.20;;;;;;;14.24;100.00;97307.59;5053135;28;20232;-80
2023/08/06 01:12:09;;;;;;;13.97;10.10;;;;;;;14.14;100.00;97298.78;5053399;28;20272;-80
2023/08/06 01:14:49;;;;;;;13.87;10.37;;;;;;;14.05;100.00;97297.03;5053731;28;20555;-82
2023/08/06 01:17:16;;;;;;;11.23;9.67;;;;;;;13.95;100.00;97305.06;5053114;28;20210;-81
2023/08/06 01:19:42;;;;;;;14.10;9.67;;;;;;;13.87;100.00;97304.94;5052703;28;20238;-80
2023/08/06 01:22:10;;;;;;;12.63;10.27;;;;;;;13.78;100.00;97300.50;5053350;28;20217;-80
2023/08/06 01:24:37;;;;;;;15.70;10.10;;;;;;;13.74;100.00;97292.97;5053054;28;20215;-81
2023/08/06 01:27:09;;;;;;;11.37;8.87;;;;;;;13.68;100.00;97299.69;5053075;28;20231;-81
2023/08/06 01:29:42;;;;;;;16.87;11.70;;;;;;;13.70;100.00;97294.25;5052645;28;20240;-80
2023/08/06 01:32:12;;;;;;;16.07;12.07;;;;;;;13.77;100.00;97298.84;5053136;28;20218;-80
2023/08/06 01:34:41;;;;;;;17.73;13.30;;;;;;;13.88;100.00;97292.50;5052804;28;20692;-82
2023/08/06 01:37:11;;;;;;;21.47;14.40;;;;;;;14.00;100.00;97286.00;5052772;28;20214;-80
2023/08/06 01:39:40;;;;;;;24.23;15.93;;;;;;;14.14;100.00;97290.81;5052738;28;20327;-82
2023/08/06 01:42:08;;;;;;;28.10;17.83;;;;;;;14.26;100.00;97287.00;5052629;28;20202;-80
2023/08/06 01:44:35;;;;;;;24.30;15.17;;;;;;;14.29;100.00;97279.56;5052835;28;20214;-80
2023/08/06 01:47:01;;;;;;;23.27;15.17;;;;;;;14.33;100.00;97280.09;5052758;28;20211;-80
2023/08/06 01:49:28;;;;;;;28.13;16.87;;;;;;;14.40;100.00;97273.19;5052109;28;20224;-81
2023/08/06 01:51:54;;;;;;;21.33;14.23;;;;;;;14.42;100.00;97264.09;5052644;28;20208;-81
2023/08/06 01:54:22;;;;;;;20.20;14.03;;;;;;;14.44;100.00;97261.28;5052934;28;20215;-80
2023/08/06 01:56:50;;;;;;;22.57;15.10;;;;;;;14.46;100.00;97260.16;5052352;28;20268;-81
2023/08/06 01:59:17;;;;;;;17.27;11.77;;;;;;;14.44;100.00;97256.81;5051990;28;20241;-80
2023/08/06 02:01:43;;;;;;;14.43;9.30;;;;;;;14.38;100.00;97254.78;5052551;28;20218;-80
2023/08/06 02:04:10;;;;;;;10.63;8.37;;;;;;;14.32;100.00;97257.19;5052226;28;20349;-80
2023/08/06 02:06:36;;;;;;;11.57;8.50;;;;;;;14.20;100.00;97250.41;5052307;28;20238;-80
2023/08/06 02:09:03;;;;;;;12.53;8.03;;;;;;;14.12;100.00;97253.75;5051967;28;20231;-80
2023/08/06 02:11:29;;;;;;;10.43;7.60;;;;;;;14.00;100.00;97252.28;5051880;28;20299;-80
2023/08/06 02:13:57;;;;;;;8.63;7.73;;;;;;;13.97;100.00;97249.09;5052332;28;20215;-80
2023/08/06 02:16:23;;;;;;;9.90;7.30;;;;;;;13.88;100.00;97247.34;5052237;28;20218;-80
2023/08/06 02:18:50;;;;;;;10.47;7.80;;;;;;;13.81;100.00;97240.94;5051675;28;20239;-80
2023/08/06 02:21:16;;;;;;;8.30;6.20;;;;;;;13.78;100.00;97238.56;5051810;28;20612;-81
2023/08/06 02:23:43;;;;;;;8.60;5.90;;;;;;;13.73;100.00;97238.19;5051967;28;20207;-80
2023/08/06 02:26:10;;;;;;;7.57;5.70;;;;;;;13.69;100.00;97231.50;5051925;28;20707;-80
2023/08/06 02:28:37;;;;;;;8.43;5.33;;;;;;;13.61;100.00;97232.22;5051942;28;20316;-80
2023/08/06 02:31:06;;;;;;;5.77;4.60;;;;;;;13.56;100.00;97246.94;5051506;28;20221;-79
2023/08/06 02:33:33;;;;;;;5.67;5.00;;;;;;;13.48;100.00;97239.69;5051946;28;20235;-81
2023/08/06 02:36:03;;;;;;;4.93;4.43;;;;;;;13.46;100.00;97240.81;5051849;28;20214;-79
2023/08/06 02:38:30;;;;;;;6.47;4.97;;;;;;;13.37;100.00;97229.25;5051452;28;20265;-81
2023/08/06 02:40:56;;;;;;;6.47;4.90;;;;;;;13.38;100.00;97238.88;5051551;28;20641;-80
2023/08/06 02:43:23;;;;;;;5.83;4.90;;;;;;;13.38;100.00;97222.94;5051300;28;20206;-80
2023/08/06 02:45:49;;;;;;;6.50;4.77;;;;;;;13.39;100.00;97226.47;5051770;28;20598;-80
2023/08/06 02:48:18;;;;;;;6.10;4.80;;;;;;;13.47;100.00;97226.56;5051515;28;20234;-80
2023/08/06 02:50:44;;;;;;;6.17;5.37;;;;;;;13.49;100.00;97227.25;5051216;28;20694;-79
2023/08/06 02:53:11;;;;;;;7.40;5.20;;;;;;;13.49;100.00;97221.94;5051452;28;20234;-80
2023/08/06 02:55:37;;;;;;;6.20;4.90;;;;;;;13.43;100.00;97217.19;5051690;28;20210;-80
2023/08/06 02:58:04;;;;;;;6.67;4.83;;;;;;;13.39;100.00;97202.56;5051425;28;20731;-81
2023/08/06 03:00:30;;;;;;;7.57;4.90;;;;;;;13.33;100.00;97208.47;5050906;28;20261;-80
2023/08/06 03:02:57;;;;;;;4.83;4.33;;;;;;;13.22;100.00;97206.81;5051356;28;20203;-81
2023/08/06 03:05:25;;;;;;;7.40;5.10;;;;;;;13.18;100.00;97201.94;5051200;28;20223;-80
2023/08/06 03:07:51;;;;;;;5.67;4.73;;;;;;;13.12;100.00;97207.81;5051260;28;20234;-81
2023/08/06 03:10:18;;;;;;;5.07;4.57;;;;;;;13.06;100.00;97205.72;5050990;28;20227;-81
2023/08/06 03:12:44;;;;;;;5.60;4.90;;;;;;;12.99;100.00;97207.28;5051285;28;20600;-81
2023/08/06 03:15:11;;;;;;;6.90;5.37;;;;;;;13.02;100.00;97199.06;5051343;28;20208;-80
2023/08/06 03:17:37;;;;;;;7.43;6.27;;;;;;;13.08;100.00;97209.09;5051218;28;20206;-80
2023/08/06 03:20:05;;;;;;;8.63;7.40;;;;;;;13.18;100.00;97199.28;5050665;28;20322;-81
2023/08/06 03:22:32;;;;;;;9.57;7.03;;;;;;;13.28;100.00;97197.44;5051158;28;20215;-80
2023/08/06 03:24:59;;;;;;;9.27;7.07;;;;;;;13.39;100.00;97186.66;5051310;28;20211;-81
2023/08/06 03:27:25;;;;;;;8.77;6.87;;;;;;;13.46;100.00;97195.69;5051183;28;20210;-80
2023/08/06 03:29:52;;;;;;;8.10;6.40;;;;;;;13.51;100.00;97191.59;5050775;28;20224;-80
2023/08/06 03:32:18;;;;;;;8.23;6.57;;;;;;;13.57;100.00;97192.84;5051076;28;20215;-79
2023/08/06 03:34:45;;;;;;;8.60;6.47;;;;;;;13.59;100.00;97198.84;5050959;28;20672;-80
2023/08/06 03:37:11;;;;;;;6.67;5.93;;;;;;;13.62;100.00;97194.06;5051195;28;20207;-80
2023/08/06 03:39:40;;;;;;;9.47;7.03;;;;;;;13.66;100.00;97194.59;5050442;28;20250;-81
2023/08/06 03:42:06;;;;;;;7.60;5.83;;;;;;;13.70;100.00;97188.03;5050989;28;20415;-80
2023/08/06 03:44:33;;;;;;;7.83;6.17;;;;;;;13.76;100.00;97190.09;5051041;28;20214;-81
2023/08/06 03:46:59;;;;;;;8.77;6.40;;;;;;;13.76;100.00;97184.78;5050827;28;20216;-80
2023/08/06 03:49:26;;;;;;;9.70;5.97;;;;;;;13.78;100.00;97190.78;5050523;28;20603;-80
2023/08/06 03:51:52;;;;;;;6.83;5.33;;;;;;;13.80;100.00;97180.81;5051112;28;20204;-81
2023/08/06 03:54:19;;;;;;;6.23;5.33;;;;;;;13.80;100.00;97183.47;5052367;28;20221;-80
2023/08/06 03:56:47;;;;;;;5.83;5.13;;;;;;;13.77;100.00;97181.13;5054990;28;20205;-81
2023/08/06 03:59:13;;;;;;;5.90;5.27;;;;;;;13.77;100.00;97186.44;5054098;28;20240;-82
2023/08/06 04:01:40;;;;;;;6.00;4.67;;;;;;;13.75;100.00;97185.78;5054555;28;20578;-80
2023/08/06 04:04:06;;;;;;;5.77;4.87;;;;;;;13.71;100.00;97193.19;5054793;28;20211;-80
2023/08/06 04:06:32;;;;;;;6.73;4.80;;;;;;;13.63;100.00;97185.13;5055000;28;20215;-80
2023/08/06 04:08:59;;;;;;;4.50;4.00;;;;;;;13.61;100.00;97191.56;5054662;28;20235;-81
2023/08/06 04:11:25;;;;;;;5.63;4.30;;;;;;;13.61;100.00;97188.91;5054383;28;20246;-80
2023/08/06 04:13:54;;;;;;;4.73;4.33;;;;;;;13.60;100.00;97198.69;5054621;28;20322;-81
2023/08/06 04:16:20;;;;;;;5.17;4.40;;;;;;;13.64;100.00;97197.41;5061561;28;20215;-81
2023/08/06 04:18:47;;;;;;;5.67;4.47;;;;;;;13.66;100.00;97194.59;5064053;28;20300;-79
2023/08/06 04:21:13;;;;;;;6.50;4.60;;;;;;;13.69;100.00;97199.63;5063097;28;20212;-79
2023/08/06 04:23:40;;;;;;;5.70;4.30;;;;;;;13.70;100.00;97196.00;5066274;28;20226;-81
2023/08/06 04:26:06;;;;;;;6.37;4.30;;;;;;;13.74;100.00;97208.00;5060732;28;20212;-82
2023/08/06 04:28:33;;;;;;;6.60;4.07;;;;;;;13.74;100.00;97206.16;5054236;28;20213;-81
2023/08/06 04:31:01;;;;;;;6.23;4.30;;;;;;;13.77;100.00;97213.00;5053747;28;20212;-81
2023/08/06 04:33:27;;;;;;;6.17;4.40;;;;;;;13.79;100.00;97203.91;5054283;28;20211;-81
2023/08/06 04:35:59;;;;;;;5.40;4.47;;;;;;;13.80;100.00;97207.38;5054234;28;20221;-82
2023/08/06 04:38:25;;;;;;;7.53;4.67;;;;;;;13.79;100.00;97211.03;5053886;28;20234;-81
2023/08/06 04:40:52;;;;;;;6.80;4.50;;;;;;;13.79;100.00;97201.25;5053669;28;20214;-82
2023/08/06 04:43:19;;;;;;;6.73;3.83;;;;;;;13.80;100.00;97191.44;5053853;28;20212;-82
2023/08/06 04:45:48;;;;;;;3.30;3.00;;;;;;;13.82;100.00;97197.47;5053899;28;20213;-82
2023/08/06 04:48:16;;;;;;;5.73;3.87;;;;;;;13.82;100.00;97200.13;5054060;28;20235;-82
2023/08/06 04:50:44;;;;;;;5.83;3.67;;;;;;;13.83;100.00;97210.63;5053669;28;20215;-82
2023/08/06 04:53:11;;;;;;;4.97;3.70;;;;;;;13.86;100.00;97217.41;5053786;28;20596;-83
2023/08/06 04:55:38;;;;;;;5.60;3.50;;;;;;;13.90;100.00;97219.66;5053801;28;20557;-82
2023/08/06 04:58:04;;;;;;;4.00;2.93;;;;;;;13.90;100.00;97216.16;5053486;28;20211;-82
2023/08/06 05:00:31;;;;;;;4.73;2.87;;;;;;;13.87;100.00;97219.94;5053020;28;20238;-84
2023/08/06 05:02:58;;;;;;;5.57;3.43;;;;;;;13.88;100.00;97221.59;5053739;28;20208;-83
2023/08/06 05:05:26;;;;;;;5.63;3.13;;;;;;;13.91;100.00;97220.47;5053262;28;20211;-83
2023/08/06 05:07:55;;;;;;;6.50;3.17;;;;;;;13.90;100.00;97229.44;5053486;28;20209;-83
2023/08/06 05:10:22;;;;;;;4.57;2.97;;;;;;;13.94;100.00;97225.50;5053037;28;20595;-81
2023/08/06 05:12:48;;;;;;;3.90;3.30;;;;;;;13.95;100.00;97222.72;5053268;28;20577;-82
2023/08/06 05:15:15;;;;;;;5.23;3.20;;;;;;;13.99;100.00;97218.75;5053250;28;20238;-82
2023/08/06 05:17:41;;;;;;;3.83;2.83;;;;;;;13.98;100.00;97217.06;5053454;28;20205;-80
2023/08/06 05:20:09;;;;;;;5.03;3.00;;;;;;;13.92;100.00;97228.28;5052766;28;20242;-81
2023/08/06 05:22:36;;;;;;;4.60;3.73;;;;;;;14.04;100.00;97215.63;5053124;28;20215;-83
2023/08/06 05:25:03;;;;;;;6.17;3.40;;;;;;;14.18;100.00;97208.00;5053032;28;20304;-80
2023/08/06 05:27:30;;;;;;;4.80;3.23;;;;;;;14.28;100.00;97208.81;5053393;28;20228;-82
2023/08/06 05:29:56;;;;;;;4.90;3.13;;;;;;;14.38;100.00;97214.03;5052654;28;20231;-82
2023/08/06 05:32:23;;;;;;;4.53;3.60;;;;;;;14.51;100.00;97219.81;5053084;28;20242;-81
2023/08/06 05:34:50;;;;;;;6.80;3.80;;;;;;;14.70;100.00;97212.53;5053048;28;20211;-80
2023/08/06 05:37:16;;;;;;;4.93;3.20;;;;;;;14.84;100.00;97216.47;5052769;28;20207;-82
2023/08/06 05:39:44;;;;;;;5.63;3.60;;;;;;;14.87;100.00;97210.81;5052252;28;20691;-81
2023/08/06 05:42:10;;;;;;;4.63;3.10;;;;;;;14.87;100.00;97226.78;5052741;28;20223;-82
2023/08/06 05:44:37;;;;;;;5.13;2.90;;;;;;;14.90;100.00;97221.16;5052854;28;20211;-80
2023/08/06 05:47:04;;;;;;;4.90;3.00;;;;;;;14.97;100.00;97222.22;5052701;28;20701;-81
2023/08/06 05:49:31;;;;;;;3.67;2.30;;;;;;;14.98;100.00;97229.22;5052228;28;20730;-82
2023/08/06 05:51:57;;;;;;;4.07;2.50;;;;;;;14.93;100.00;97229.69;5052573;28;20217;-82
2023/08/06 05:54:24;;;;;;;2.97;2.60;;;;;;;14.94;100.00;97233.16;5052874;28;20211;-82
2023/08/06 05:56:52;;;;;;;3.50;2.50;;;;;;;14.95;100.00;97226.84;5052705;28;20222;-81
2023/08/06 05:59:18;;;;;;;2.50;2.30;;;;;;;14.97;100.00;97230.19;5051713;28;20238;-81
2023/08/06 06:01:44;;;;;;;2.47;2.20;;;;;;;14.98;100.00;97235.34;5052456;28;20570;-80
2023/08/06 06:04:11;;;;;;;2.60;2.40;;;;;;;14.95;100.00;97240.16;5052467;28;20218;-81
2023/08/06 06:06:37;;;;;;;3.57;1.90;;;;;;;14.93;100.00;97242.13;5052342;28;20215;-80
2023/08/06 06:09:04;;;;;;;4.53;2.07;;;;;;;14.92;100.00;97246.59;5052052;28;20250;-81
2023/08/06 06:11:30;;;;;;;3.10;1.83;;;;;;;14.96;100.00;97247.16;5052134;28;20215;-79
2023/08/06 06:13:58;;;;;;;3.90;2.20;;;;;;;14.88;100.00;97249.72;5052272;28;20215;-79
2023/08/06 06:16:25;;;;;;;2.93;1.80;;;;;;;14.86;100.00;97262.38;5051681;28;20694;-82
2023/08/06 06:18:52;;;;;;;3.70;1.63;;;;;;;14.78;100.00;97257.81;5052249;28;20281;-79
2023/08/06 06:21:18;;;;;;;2.13;1.50;;;;;;;14.79;100.00;97264.78;5053683;28;20225;-80
2023/08/06 06:23:45;;;;;;;1.23;1.13;;;;;;;14.79;100.00;97266.63;5051987;28;20696;-76
2023/08/06 06:26:11;;;;;;;3.47;1.50;;;;;;;14.81;100.00;97268.16;5052094;28;20211;-77
2023/08/06 06:28:37;;;;;;;2.23;1.20;;;;;;;14.78;100.00;97265.78;5051795;28;20239;-77
2023/08/06 06:31:06;;;;;;;1.43;0.80;;;;;;;14.72;100.00;97270.88;5051792;28;20203;-80
2023/08/06 06:33:32;;;;;;;1.43;0.87;;;;;;;14.66;100.00;97272.31;5051916;28;20206;-80
2023/08/06 06:35:59;;;;;;;2.27;1.23;;;;;;;14.58;100.00;97274.06;5051711;28;20211;-80
2023/08/06 06:38:25;;;;;;;1.00;0.90;;;;;;;14.53;100.00;97281.66;5051827;28;20206;-80
2023/08/06 06:40:55;;;;;;;2.50;1.10;;;;;;;14.55;100.00;97291.16;5051183;28;20753;-81
2023/08/06 06:43:22;;;;;;;2.83;1.00;;;;;;;14.60;100.00;97288.88;5051519;28;20214;-80
2023/08/06 06:45:53;;;;;;;1.47;0.80;;;;;;;14.59;100.00;97276.56;5051659;28;20210;-80
2023/08/06 06:48:20;;;;;;;1.20;0.90;;;;;;;14.61;100.00;97279.09;5051592;28;20207;-82
2023/08/06 06:50:48;;;;;;;1.43;0.90;;;;;;;14.64;100.00;97284.94;5051164;28;20670;-79
2023/08/06 06:53:14;;;;;;;1.53;0.80;;;;;;;14.66;100.00;97290.13;5051693;28;20588;-81
2023/08/06 06:55:41;;;;;;;1.63;0.93;;;;;;;14.70;100.00;97278.16;5051388;28;20226;-78
2023/08/06 06:58:07;;;;;;;2.97;0.80;;;;;;;14.68;100.00;97285.47;5051446;28;20211;-80
2023/08/06 07:00:36;;;;;;;2.23;0.80;;;;;;;14.66;100.00;97287.47;5065218;22;20230;-82
2023/08/06 07:03:03;;;;;;;1.40;0.80;;;;;;;14.60;100.00;97285.41;5050549;28;20214;-83
2023/08/06 07:05:31;;;;;;;1.63;0.70;;;;;;;14.63;100.00;97290.41;5051297;28;20215;-82
2023/08/06 07:07:57;;;;;;;1.27;0.80;;;;;;;14.66;100.00;97287.47;5051106;28;20229;-83
2023/08/06 07:10:24;;;;;;;1.23;0.63;;;;;;;14.70;100.00;97289.66;5050930;28;20242;-83
2023/08/06 07:12:50;;;;;;;1.13;0.60;;;;;;;14.81;100.00;97286.78;5051079;28;20257;-78
2023/08/06 07:15:17;;;;;;;1.20;0.60;;;;;;;14.79;100.00;97290.56;5051182;28;20210;-81
2023/08/06 07:17:44;;;;;;;2.73;0.60;;;;;;;14.79;100.00;97293.22;5050823;28;20266;-83
2023/08/06 07:20:11;;;;;;;0.60;0.57;;;;;;;14.78;100.00;97291.56;5050818;28;20238;-86
2023/08/06 07:22:39;;;;;;;2.50;0.70;;;;;;;14.71;100.00;97304.63;5051128;28;20296;-85
2023/08/06 07:25:05;;;;;;;3.97;1.67;;;;;;;14.69;100.00;97303.94;5054280;28;20211;-86
2023/08/06 07:27:33;;;;;;;0.97;0.60;;;;;;;14.72;100.00;97310.78;5051124;28;20682;-85
2023/08/06 07:29:59;;;;;;;0.63;0.60;;;;;;;14.72;100.00;97310.78;5051931;28;20234;-81
2023/08/06 07:32:27;;;;;;;1.13;0.60;;;;;;;14.75;100.00;97318.44;5052300;28;20232;-87
2023/08/06 07:34:59;;;;;;;1.03;0.60;;;;;;;14.74;100.00;97311.47;5052313;28;20217;-88
2023/08/06 07:37:28;;;;;;;0.63;0.50;;;;;;;14.67;100.00;97313.06;5054182;28;20222;-87
2023/08/06 07:39:55;;;;;;;1.43;0.60;;;;;;;14.68;100.00;97312.06;5054541;28;20262;-86
2023/08/06 07:42:22;;;;;;;0.90;0.70;;;;;;;14.74;100.00;97303.47;5058898;28;20297;-84
2023/08/06 07:44:52;;;;;;;0.40;0.40;;;;;;;14.81;100.00;97307.19;5060955;28;20209;-85
2023/08/06 07:47:19;;;;;;;0.90;0.60;;;;;;;14.88;100.00;97305.59;5054614;28;20221;-88
2023/08/06 07:49:45;;;;;;;0.50;0.40;;;;;;;14.97;100.00;97307.38;5052202;28;20234;-89
2023/08/06 07:52:12;;;;;;;1.33;0.70;;;;;;;15.07;100.00;97313.41;5054702;28;20212;-91
2023/08/06 07:54:38;;;;;;;0.93;0.87;;;;;;;15.18;100.00;97305.19;5054236;28;20212;-82
2023/08/06 07:57:07;;;;;;;0.43;0.43;;;;;;;15.24;100.00;97312.56;5051899;28;20207;-82
2023/08/06 07:59:34;;;;;;;1.47;0.60;;;;;;;15.23;100.00;97302.91;5051342;28;20243;-87
2023/08/06 08:02:01;;;;;;;0.50;0.50;;;;;;;15.27;100.00;97307.78;5051857;28;20216;-86
2023/08/06 08:04:27;;;;;;;1.63;0.53;;;;;;;15.24;100.00;97309.91;5053494;28;20216;-85
2023/08/06 08:06:54;;;;;;;0.70;0.60;;;;;;;15.32;100.00;97308.19;5052084;28;20479;-87
2023/08/06 08:09:20;;;;;;;0.40;0.40;;;;;;;15.31;100.00;97302.97;5052626;28;20261;-83
2023/08/06 08:11:47;;;;;;;0.50;0.40;;;;;;;15.42;100.00;97305.41;5053486;28;20211;-82
2023/08/06 08:14:15;;;;;;;0.40;0.40;;;;;;;15.57;100.00;97306.53;5052950;28;20216;-79
2023/08/06 08:16:42;;;;;;;0.60;0.60;;;;;;;15.78;100.00;97309.66;5053352;28;20266;-78
2023/08/06 08:19:08;;;;;;;0.40;0.40;;;;;;;15.96;100.00;97313.09;5053789;28;20228;-80
2023/08/06 08:21:35;;;;;;;0.40;0.37;;;;;;;16.19;100.00;97310.53;5053920;28;20231;-80
2023/08/06 08:24:02;;;;;;;0.40;0.30;;;;;;;16.45;100.00;97306.00;5051794;28;20212;-78
2023/08/06 08:26:28;;;;;;;0.30;0.30;;;;;;;16.69;100.00;97295.38;5052772;28;20212;-82
2023/08/06 08:28:55;;;;;;;0.60;0.40;;;;;;;16.83;100.00;97297.41;5053022;28;20215;-82
2023/08/06 08:31:23;;;;;;;0.30;0.30;;;;;;;17.10;100.00;97297.09;5053116;28;20200;-82
2023/08/06 08:33:49;;;;;;;0.40;0.30;;;;;;;17.34;100.00;97289.09;5052753;28;20208;-81
2023/08/06 08:36:15;;;;;;;0.30;0.30;;;;;;;17.49;100.00;97287.44;5053243;28;20208;-83
2023/08/06 08:38:42;;;;;;;0.30;0.30;;;;;;;17.51;100.00;97290.78;5052640;28;20204;-83
2023/08/06 08:41:10;;;;;;;2.23;0.30;;;;;;;17.33;100.00;97295.44;5051685;28;20301;-83
2023/08/06 08:43:38;;;;;;;0.60;0.40;;;;;;;17.34;100.00;97296.25;5052920;28;20212;-83
2023/08/06 08:46:07;;;;;;;0.40;0.37;;;;;;;17.17;100.00;97298.09;5052989;28;20236;-83
2023/08/06 08:48:35;;;;;;;0.20;0.20;;;;;;;17.36;100.00;97288.91;5052804;28;20220;-83
2023/08/06 08:51:03;;;;;;;0.97;0.30;;;;;;;17.39;100.00;97296.63;5052453;28;20232;-81
2023/08/06 08:53:29;;;;;;;0.30;0.30;;;;;;;17.43;100.00;97293.44;5052418;28;20427;-85
2023/08/06 08:55:56;;;;;;;0.20;0.20;;;;;;;17.44;100.00;97294.28;5053370;28;20208;-81
2023/08/06 08:58:22;;;;;;;0.10;0.10;;;;;;;17.40;100.00;97293.81;5053454;28;20222;-81
2023/08/06 09:00:50;;;;;;;0.20;0.20;;;;;;;17.34;100.00;97299.78;5052105;28;20228;-81
2023/08/06 09:03:17;;;;;;;0.30;0.30;;;;;;;17.12;100.00;97297.75;5050432;28;20219;-82
2023/08/06 09:05:46;;;;;;;1.17;0.30;;;;;;;16.90;100.00;97310.94;5050510;28;20208;-78
2023/08/06 09:08:18;;;;;;;0.90;0.30;;;;;;;16.57;100.00;97317.22;5050315;28;20344;-78
2023/08/06 09:10:45;;;;;;;0.50;0.20;;;;;;;16.24;100.00;97313.56;5052107;28;20678;-78
2023/08/06 09:13:12;;;;;;;0.10;0.10;;;;;;;16.15;100.00;97319.84;5052027;28;20214;-78
2023/08/06 09:15:38;;;;;;;0.20;0.20;;;;;;;16.07;100.00;97326.16;5051512;28;20219;-78
2023/08/06 09:18:10;;;;;;;0.10;0.10;;;;;;;15.93;100.00;97324.03;5052391;28;20218;-81
2023/08/06 09:20:40;;;;;;;0.10;0.10;;;;;;;15.84;100.00;97325.88;5051496;28;20235;-81
2023/08/06 09:23:11;;;;;;;0.23;0.23;;;;;;;15.87;100.00;97330.00;5051893;28;20212;-81
2023/08/06 09:25:41;;;;;;;0.47;0.30;;;;;;;15.94;100.00;97320.41;5052026;28;20222;-82
2023/08/06 09:28:07;;;;;;;0.93;0.20;;;;;;;16.04;100.00;97327.28;5052825;28;20218;-81
2023/08/06 09:30:36;;;;;;;0.10;0.10;;;;;;;16.00;100.00;97330.44;5052294;28;20223;-85
2023/08/06 09:33:03;;;;;;;0.67;0.20;;;;;;;16.07;100.00;97331.47;5052768;28;20219;-80
2023/08/06 09:35:30;;;;;;;0.30;0.30;;;;;;;16.15;100.00;97332.34;5052804;28;20215;-89
2023/08/06 09:37:57;;;;;;;0.73;0.23;;;;;;;16.12;100.00;97329.16;5053220;28;20203;-86
2023/08/06 09:40:27;;;;;;;0.77;0.73;;;;;;;16.03;100.00;97330.97;5052720;28;20248;-85
2023/08/06 09:42:54;;;;;;;1.03;0.20;;;;;;;16.13;100.00;97330.84;5053714;28;20208;-86
2023/08/06 09:45:22;;;;;;;0.40;0.20;;;;;;;16.13;100.00;97337.84;5052631;28;20215;-87
2023/08/06 09:47:49;;;;;;;1.13;0.23;;;;;;;16.09;100.00;97341.81;5052875;28;20210;-89
2023/08/06 09:50:18;;;;;;;0.10;0.10;;;;;;;16.02;100.00;97331.94;5052197;28;20595;-89
2023/08/06 09:52:45;;;;;;;0.20;0.20;;;;;;;16.04;100.00;97335.28;5051397;28;20214;-89
2023/08/06 09:55:12;;;;;;;0.50;0.30;;;;;;;16.02;100.00;97335.44;5052343;28;20222;-89
2023/08/06 09:57:41;;;;;;;0.97;0.30;;;;;;;16.04;100.00;97341.44;5052426;28;20215;-89
2023/08/06 10:00:10;;;;;;;0.30;0.30;;;;;;;16.12;100.00;97345.16;5051885;28;20240;-90
2023/08/06 10:02:36;;;;;;;0.30;0.30;;;;;;;16.16;100.00;97337.50;5052360;28;20557;-89
2023/08/06 10:05:03;;;;;;;0.30;0.30;;;;;;;16.13;100.00;97341.50;5052579;28;20218;-89
2023/08/06 10:07:31;;;;;;;0.67;0.30;;;;;;;16.06;100.00;97343.94;5052001;28;20730;-90
2023/08/06 10:09:57;;;;;;;0.20;0.20;;;;;;;16.08;100.00;97343.81;5051844;28;20247;-90
2023/08/06 10:12:25;;;;;;;0.43;0.30;;;;;;;16.07;100.00;97339.47;5051949;28;20670;-84
2023/08/06 10:14:55;;;;;;;0.30;0.30;;;;;;;16.17;100.00;97355.19;5051807;28;20223;-84
2023/08/06 10:17:23;;;;;;;1.00;0.40;;;;;;;16.26;100.00;97354.22;5051955;28;20212;-82
2023/08/06 10:19:51;;;;;;;0.20;0.20;;;;;;;16.55;100.00;97344.03;5051477;28;20239;-85
2023/08/06 10:22:18;;;;;;;0.37;0.30;;;;;;;16.61;100.00;97340.72;5051684;28;20228;-86
2023/08/06 10:24:49;;;;;;;0.20;0.20;;;;;;;16.70;100.00;97336.25;5051837;28;20295;-88
2023/08/06 10:27:21;;;;;;;0.30;0.30;;;;;;;16.71;100.00;97338.72;5051571;28;20690;-88
2023/08/06 10:29:47;;;;;;;0.20;0.20;;;;;;;16.68;100.00;97331.06;5051738;28;20597;-86
2023/08/06 10:32:18;;;;;;;0.40;0.40;;;;;;;16.74;100.00;97338.44;5051750;28;20212;-85
2023/08/06 10:34:58;;;;;;;0.40;0.20;;;;;;;16.71;100.00;97344.06;5052154;28;20257;-82
2023/08/06 10:37:35;;;;;;;0.20;0.20;;;;;;;16.70;100.00;97342.41;5051760;28;20211;-85
2023/08/06 10:40:02;;;;;;;1.03;0.37;;;;;;;16.83;100.00;97342.78;5051342;28;20238;-87
2023/08/06 10:42:29;;;;;;;0.60;0.53;;;;;;;16.88;100.00;97334.28;5051740;28;20259;-87
2023/08/06 10:45:15;;;;;;;0.70;0.50;;;;;;;16.95;100.00;97341.47;5051385;28;20211;-88
2023/08/06 10:47:43;;;;;;;0.17;0.17;;;;;;;16.87;100.00;97336.13;5051287;28;20243;-89
2023/08/06 10:50:16;;;;;;;0.67;0.30;;;;;;;16.79;100.00;97338.78;5051027;28;20274;-88
2023/08/06 10:52:43;;;;;;;0.67;0.27;;;;;;;16.80;100.00;97337.78;5051426;28;20211;-87
2023/08/06 10:55:10;;;;;;;1.70;0.40;;;;;;;16.73;100.00;97347.44;5051436;28;20203;-81
2023/08/06 10:57:37;;;;;;;0.40;0.40;;;;;;;16.61;100.00;97351.41;5051359;28;20254;-80
2023/08/06 11:00:09;;;;;;;1.07;0.20;;;;;;;16.45;100.00;97359.34;5050989;28;20326;-85
2023/08/06 11:02:36;;;;;;;0.20;0.20;;;;;;;16.48;100.00;97369.69;5049357;28;20303;-88
2023/08/06 11:05:08;;;;;;;0.30;0.30;;;;;;;16.42;100.00;97382.81;5048663;28;20217;-88
2023/08/06 11:07:35;;;;;;;0.30;0.30;;;;;;;16.40;100.00;97384.81;5048705;28;20752;-87
2023/08/06 11:10:03;;;;;;;0.40;0.40;;;;;;;16.14;100.00;97384.81;5048373;28;20721;-87
2023/08/06 11:12:30;;;;;;;0.63;0.40;;;;;;;15.96;100.00;97388.56;5051111;28;20696;-90
2023/08/06 11:14:56;;;;;;;1.40;0.47;;;;;;;15.82;100.00;97377.63;5051070;28;20219;-87
2023/08/06 11:17:23;;;;;;;1.50;0.67;;;;;;;15.83;100.00;97398.78;5048659;28;20590;-87
2023/08/06 11:19:51;;;;;;;1.73;0.60;;;;;;;15.90;100.00;97377.69;5047949;28;20718;-89
2023/08/06 11:22:19;;;;;;;1.20;0.77;;;;;;;15.91;100.00;97384.69;5048092;28;20228;-90